createdAt,value
2023-05-19T00:00:30.798Z,2.97
2023-05-19T00:02:58.319Z,3.65
2023-05-19T00:05:25.287Z,3.20
2023-05-19T00:07:52.781Z,3.97
2023-05-19T00:10:19.893Z,3.10
2023-05-19T00:12:47.162Z,2.80
2023-05-19T00:15:14.445Z,3.45
2023-05-19T00:17:42.549Z,4.00
2023-05-19T00:20:09.836Z,3.67
2023-05-19T00:22:37.098Z,3.35
2023-05-19T00:25:04.182Z,3.05
2023-05-19T00:27:31.083Z,3.35
2023-05-19T00:29:57.808Z,2.50
2023-05-19T00:32:24.647Z,3.90
2023-05-19T00:34:51.517Z,2.33
2023-05-19T00:37:18.266Z,2.33
2023-05-19T00:39:45.059Z,3.40
2023-05-19T00:42:11.929Z,3.33
2023-05-19T00:44:41.408Z,3.72
2023-05-19T00:47:08.841Z,3.22
2023-05-19T00:49:36.168Z,3.22
2023-05-19T00:52:05.742Z,3.70
2023-05-19T00:54:34.050Z,3.58
2023-05-19T00:57:01.225Z,3.70
2023-05-19T00:59:28.246Z,3.38
2023-05-19T01:01:55.036Z,3.78
2023-05-19T01:04:22.386Z,3.17
2023-05-19T01:06:55.044Z,3.28
2023-05-19T01:09:25.016Z,3.80
2023-05-19T01:11:51.813Z,3.38
2023-05-19T01:14:20.507Z,3.53
2023-05-19T01:17:07.189Z,3.20
2023-05-19T01:19:50.850Z,2.97
2023-05-19T01:22:45.378Z,3.05
2023-05-19T01:25:36.911Z,3.20
2023-05-19T01:28:06.630Z,3.15
2023-05-19T01:30:39.508Z,3.10
2023-05-19T01:33:09.564Z,3.28
2023-05-19T01:35:38.926Z,3.30
2023-05-19T01:38:08.996Z,3.30
2023-05-19T01:40:38.745Z,2.72
2023-05-19T01:43:07.932Z,3.78
2023-05-19T01:45:35.522Z,3.72
2023-05-19T01:48:04.470Z,3.53
2023-05-19T01:50:32.538Z,3.20
2023-05-19T01:53:00.537Z,4.53
2023-05-19T01:55:27.723Z,4.05
2023-05-19T01:58:26.359Z,4.13
2023-05-19T02:00:56.015Z,3.75
2023-05-19T02:03:31.848Z,2.83
2023-05-19T02:06:25.967Z,2.80
2023-05-19T02:08:55.723Z,3.17
2023-05-19T02:11:25.532Z,2.40
2023-05-19T02:13:56.513Z,4.35
2023-05-19T02:16:28.092Z,4.32
2023-05-19T02:18:55.298Z,3.50
2023-05-19T02:21:22.087Z,4.85
2023-05-19T02:23:50.789Z,4.03
2023-05-19T02:26:17.583Z,3.10
2023-05-19T02:28:44.401Z,4.05
2023-05-19T02:31:11.157Z,3.92
2023-05-19T02:33:37.861Z,3.75
2023-05-19T02:36:05.263Z,3.75
2023-05-19T02:38:32.723Z,3.72
2023-05-19T02:40:59.469Z,4.03
2023-05-19T02:43:26.234Z,3.95
2023-05-19T02:45:53.072Z,4.05
2023-05-19T02:48:19.816Z,4.13
2023-05-19T02:50:46.693Z,4.47
2023-05-19T02:53:13.434Z,3.50
2023-05-19T02:55:40.199Z,3.97
2023-05-19T02:58:07.133Z,3.35
2023-05-19T03:00:34.128Z,3.72
2023-05-19T03:03:02.946Z,3.72
2023-05-19T03:05:32.755Z,4.03
2023-05-19T03:07:59.559Z,3.70
2023-05-19T03:10:26.278Z,4.32
2023-05-19T03:12:52.994Z,4.07
2023-05-19T03:15:20.933Z,4.70
2023-05-19T03:17:48.172Z,3.65
2023-05-19T03:20:17.966Z,4.43
2023-05-19T03:22:44.728Z,4.35
2023-05-19T03:25:11.492Z,4.88
2023-05-19T03:27:38.224Z,3.97
2023-05-19T03:30:06.747Z,3.65
2023-05-19T03:32:34.053Z,4.80
2023-05-19T03:35:01.218Z,4.25
2023-05-19T03:37:27.968Z,5.07
2023-05-19T03:39:54.685Z,5.13
2023-05-19T03:42:21.461Z,5.22
2023-05-19T03:44:48.459Z,6.18
2023-05-19T03:47:15.342Z,4.28
2023-05-19T03:49:42.144Z,5.13
2023-05-19T03:52:09.926Z,5.85
2023-05-19T03:54:38.916Z,5.40
2023-05-19T03:57:08.739Z,4.95
2023-05-19T03:59:37.264Z,4.45
2023-05-19T04:02:04.332Z,5.60
2023-05-19T04:04:31.516Z,4.93
2023-05-19T04:06:58.463Z,4.95
2023-05-19T04:09:25.230Z,4.65
2023-05-19T04:11:52.129Z,4.72
2023-05-19T04:14:20.114Z,5.32
2023-05-19T04:16:46.912Z,5.05
2023-05-19T04:19:13.712Z,5.70
2023-05-19T04:21:40.450Z,7.65
2023-05-19T04:24:07.374Z,6.18
2023-05-19T04:26:34.683Z,6.03
2023-05-19T04:29:04.654Z,5.05
2023-05-19T04:31:31.563Z,4.90
2023-05-19T04:33:58.360Z,6.00
2023-05-19T04:36:25.187Z,5.93
2023-05-19T04:38:54.875Z,5.38
2023-05-19T04:41:22.003Z,6.30
2023-05-19T04:43:50.085Z,5.30
2023-05-19T04:46:16.925Z,5.50
2023-05-19T04:48:44.099Z,5.18
2023-05-19T04:51:14.335Z,5.38
2023-05-19T04:53:42.201Z,5.80
2023-05-19T04:56:09.658Z,5.38
2023-05-19T04:58:39.581Z,5.55
2023-05-19T05:01:09.660Z,5.60
2023-05-19T05:03:36.806Z,5.63
2023-05-19T05:06:04.622Z,6.00
2023-05-19T05:08:32.227Z,5.90
2023-05-19T05:10:59.512Z,5.75
2023-05-19T05:13:26.598Z,5.60
2023-05-19T05:15:54.279Z,5.45
2023-05-19T05:18:21.380Z,6.35
2023-05-19T05:20:48.481Z,6.53
2023-05-19T05:23:16.907Z,6.50
2023-05-19T05:25:44.605Z,5.78
2023-05-19T05:28:11.759Z,6.35
2023-05-19T05:30:38.654Z,6.30
2023-05-19T05:33:06.463Z,5.43
2023-05-19T05:35:33.511Z,5.57
2023-05-19T05:38:01.730Z,5.65
2023-05-19T05:40:28.557Z,7.70
2023-05-19T05:42:55.748Z,5.85
2023-05-19T05:45:25.832Z,6.50
2023-05-19T05:47:53.020Z,6.75
2023-05-19T05:50:20.198Z,7.28
2023-05-19T05:52:48.316Z,6.32
2023-05-19T05:55:17.570Z,6.55
2023-05-19T05:57:44.653Z,8.00
2023-05-19T06:00:17.728Z,6.40
2023-05-19T06:02:50.729Z,6.28
2023-05-19T06:05:17.877Z,7.47
2023-05-19T06:07:44.662Z,7.38
2023-05-19T06:10:11.714Z,8.05
2023-05-19T06:12:43.202Z,7.15
2023-05-19T06:15:10.576Z,7.50
2023-05-19T06:17:37.456Z,7.43
2023-05-19T06:20:08.799Z,8.50
2023-05-19T06:22:36.003Z,6.95
2023-05-19T06:25:03.660Z,6.18
2023-05-19T06:27:32.646Z,8.27
2023-05-19T06:30:01.392Z,7.32
2023-05-19T06:32:29.700Z,8.88
2023-05-19T06:34:56.606Z,7.78
2023-05-19T06:37:23.788Z,7.35
2023-05-19T06:39:54.654Z,7.50
2023-05-19T06:42:25.326Z,7.97
2023-05-19T06:44:52.939Z,7.97
2023-05-19T06:47:20.031Z,5.70
2023-05-19T06:49:50.777Z,7.07
2023-05-19T06:52:17.745Z,7.90
2023-05-19T06:54:44.524Z,5.95
2023-05-19T06:57:11.222Z,8.52
2023-05-19T06:59:40.820Z,8.10
2023-05-19T07:02:08.578Z,7.65
2023-05-19T07:04:36.669Z,6.80
2023-05-19T07:07:05.827Z,5.38
2023-05-19T07:09:33.830Z,7.50
2023-05-19T07:12:02.388Z,7.07
2023-05-19T07:14:30.496Z,7.97
2023-05-19T07:16:57.671Z,6.88
2023-05-19T07:19:25.482Z,6.47
2023-05-19T07:21:58.711Z,6.20
2023-05-19T07:24:39.584Z,6.78
2023-05-19T07:27:07.088Z,6.38
2023-05-19T07:29:34.784Z,7.03
2023-05-19T07:32:10.439Z,4.40
2023-05-19T07:34:38.344Z,5.88
2023-05-19T07:37:09.453Z,5.30
2023-05-19T07:39:38.381Z,5.55
2023-05-19T07:42:06.191Z,5.82
2023-05-19T07:44:53.394Z,6.72
2023-05-19T07:47:21.606Z,5.45
2023-05-19T07:49:51.773Z,6.25
2023-05-19T07:54:54.927Z,5.40
2023-05-19T07:57:22.541Z,5.25
2023-05-19T07:59:50.289Z,4.45
2023-05-19T08:02:30.176Z,5.38
2023-05-19T08:05:01.705Z,5.75
2023-05-19T08:07:36.248Z,5.22
2023-05-19T08:10:05.175Z,5.15
2023-05-19T08:12:35.530Z,5.50
2023-05-19T08:15:13.707Z,4.82
2023-05-19T08:17:53.110Z,5.22
2023-05-19T08:20:23.658Z,4.88
2023-05-19T08:23:02.414Z,4.97
2023-05-19T08:25:30.410Z,4.93
2023-05-19T08:27:58.682Z,4.60
2023-05-19T08:30:26.825Z,4.78
2023-05-19T08:32:54.506Z,4.55
2023-05-19T08:35:22.479Z,4.38
2023-05-19T08:37:51.595Z,3.85
2023-05-19T08:40:21.489Z,4.32
2023-05-19T08:42:52.632Z,4.32
2023-05-19T08:45:31.516Z,4.72
2023-05-19T08:48:00.273Z,5.15
2023-05-19T08:50:34.190Z,4.43
2023-05-19T08:53:32.321Z,4.85
2023-05-19T08:56:23.507Z,5.05
2023-05-19T08:58:52.376Z,4.45
2023-05-19T09:01:21.396Z,5.28
2023-05-19T09:03:50.876Z,4.90
2023-05-19T09:06:21.133Z,4.97
2023-05-19T09:08:49.467Z,5.18
2023-05-19T09:11:20.254Z,5.07
2023-05-19T09:13:49.457Z,3.47
2023-05-19T09:16:18.908Z,5.35
2023-05-19T09:19:12.358Z,3.90
2023-05-19T09:21:40.137Z,5.10
2023-05-19T09:24:08.892Z,4.65
2023-05-19T09:26:40.824Z,6.50
2023-05-19T09:29:27.545Z,6.97
2023-05-19T09:32:01.249Z,5.00
2023-05-19T09:34:29.807Z,5.43
2023-05-19T09:36:58.432Z,4.75
2023-05-19T09:39:26.460Z,5.13
2023-05-19T09:41:55.622Z,4.32
2023-05-19T09:44:31.466Z,4.90
2023-05-19T09:47:03.322Z,4.57
2023-05-19T09:49:57.995Z,5.00
2023-05-19T09:52:34.970Z,4.53
2023-05-19T09:55:05.041Z,4.20
2023-05-19T10:00:21.135Z,4.47
2023-05-19T10:02:51.077Z,4.30
2023-05-19T10:05:23.312Z,4.47
2023-05-19T10:07:52.888Z,4.15
2023-05-19T10:10:23.653Z,4.03
2023-05-19T10:12:52.636Z,3.17
2023-05-19T10:15:23.134Z,4.82
2023-05-19T10:17:52.443Z,3.47
2023-05-19T10:20:20.662Z,4.15
2023-05-19T10:22:49.904Z,3.13
2023-05-19T10:25:20.183Z,3.75
2023-05-19T10:27:58.103Z,3.72
2023-05-19T10:30:47.755Z,4.15
2023-05-19T10:33:20.183Z,3.72
2023-05-19T10:36:23.033Z,4.22
2023-05-19T10:39:35.469Z,3.63
2023-05-19T10:42:24.420Z,4.47
2023-05-19T10:52:41.477Z,3.53
2023-05-19T10:55:16.140Z,4.03
2023-05-19T10:57:58.857Z,3.70
2023-05-19T11:00:32.199Z,4.15
2023-05-19T11:03:43.313Z,3.60
2023-05-19T11:06:28.317Z,3.83
2023-05-19T11:08:59.052Z,3.67
2023-05-19T11:11:26.864Z,4.20
2023-05-19T11:13:57.054Z,4.30
2023-05-19T11:16:32.565Z,4.00
2023-05-19T11:18:59.957Z,3.83
2023-05-19T11:21:59.330Z,4.65
2023-05-19T11:24:48.233Z,4.00
2023-05-19T11:27:28.863Z,3.60
2023-05-19T11:29:59.176Z,3.70
2023-05-19T11:32:37.495Z,3.97
2023-05-19T11:35:04.856Z,4.20
2023-05-19T11:37:32.784Z,4.68
2023-05-19T11:40:02.954Z,4.00
2023-05-19T11:42:37.900Z,3.93
2023-05-19T11:45:06.438Z,4.00
2023-05-19T11:47:45.875Z,4.57
2023-05-19T11:50:14.652Z,4.72
2023-05-19T11:52:49.728Z,4.00
2023-05-19T11:55:24.340Z,3.97
2023-05-19T11:58:05.059Z,4.67
2023-05-19T12:00:39.710Z,4.85
2023-05-19T12:03:08.870Z,5.90
2023-05-19T12:05:43.340Z,7.30
2023-05-19T12:08:13.427Z,5.97
2023-05-19T12:10:43.226Z,7.30
2023-05-19T12:13:20.222Z,7.40
2023-05-19T12:15:47.540Z,7.40
2023-05-19T12:18:14.861Z,8.13
2023-05-19T12:20:44.329Z,7.60
2023-05-19T12:23:12.070Z,8.82
2023-05-19T12:25:39.366Z,8.45
2023-05-19T12:28:07.359Z,8.63
2023-05-19T12:30:37.689Z,7.20
2023-05-19T12:33:05.564Z,8.30
2023-05-19T12:35:36.679Z,8.35
2023-05-19T12:38:09.718Z,9.50
2023-05-19T12:40:37.919Z,7.90
2023-05-19T12:43:07.077Z,9.25
2023-05-19T12:45:39.166Z,8.85
2023-05-19T12:48:13.675Z,9.48
2023-05-19T12:50:41.921Z,9.70
2023-05-19T12:53:13.109Z,9.68
2023-05-19T12:55:46.834Z,9.57
2023-05-19T12:58:16.031Z,8.82
2023-05-19T13:00:54.825Z,8.23
2023-05-19T13:03:26.711Z,6.63
2023-05-19T13:08:25.483Z,6.65
2023-05-19T13:10:52.557Z,7.60
2023-05-19T13:13:19.653Z,7.80
2023-05-19T13:15:49.404Z,7.32
2023-05-19T13:18:17.747Z,8.15
2023-05-19T13:20:47.371Z,9.55
2023-05-19T13:23:15.725Z,7.18
2023-05-19T13:25:43.436Z,7.25
2023-05-19T13:28:10.919Z,7.50
2023-05-19T13:30:50.390Z,8.68
2023-05-19T13:33:17.788Z,7.68
2023-05-19T13:35:45.400Z,6.70
2023-05-19T13:38:14.753Z,8.30
2023-05-19T13:40:47.545Z,10.10
2023-05-19T13:43:15.083Z,9.90
2023-05-19T13:45:44.707Z,9.10
2023-05-19T13:48:20.815Z,6.78
2023-05-19T13:50:49.168Z,7.80
2023-05-19T13:53:23.680Z,8.13
2023-05-19T13:55:53.971Z,7.57
2023-05-19T13:58:21.264Z,7.78
2023-05-19T14:00:50.017Z,6.47
2023-05-19T14:03:19.900Z,7.47
2023-05-19T14:05:51.292Z,6.63
2023-05-19T14:08:19.480Z,6.80
2023-05-19T14:10:56.338Z,6.13
2023-05-19T14:15:55.819Z,6.95
2023-05-19T14:18:22.894Z,6.30
2023-05-19T14:21:02.921Z,7.28
2023-05-19T14:23:30.647Z,8.10
2023-05-19T14:25:57.514Z,5.63
2023-05-19T14:28:25.141Z,5.55
2023-05-19T14:30:55.117Z,5.78
2023-05-19T14:33:23.143Z,5.97
2023-05-19T14:35:51.460Z,5.63
2023-05-19T14:38:18.829Z,6.05
2023-05-19T14:40:46.504Z,4.97
2023-05-19T14:43:23.645Z,5.68
2023-05-19T14:46:03.690Z,6.13
2023-05-19T14:48:31.038Z,6.13
2023-05-19T14:50:59.418Z,4.60
2023-05-19T14:53:31.713Z,5.65
2023-05-19T14:55:58.975Z,6.18
2023-05-19T14:58:28.258Z,5.95
2023-05-19T15:01:01.121Z,6.88
2023-05-19T15:03:29.852Z,6.80
2023-05-19T15:05:56.979Z,6.47
2023-05-19T15:08:25.309Z,6.83
2023-05-19T15:10:52.412Z,6.70
2023-05-19T15:13:19.312Z,6.97
2023-05-19T15:15:46.581Z,7.20
2023-05-19T15:18:17.742Z,6.70
2023-05-19T15:20:46.623Z,6.82
2023-05-19T15:23:13.652Z,6.57
2023-05-19T15:25:41.861Z,7.50
2023-05-19T15:28:12.980Z,6.80
2023-05-19T15:30:40.083Z,7.37
2023-05-19T15:33:14.495Z,7.32
2023-05-19T15:35:41.634Z,6.43
2023-05-19T15:38:08.739Z,6.80
2023-05-19T15:40:36.170Z,6.65
2023-05-19T15:43:08.604Z,5.60
2023-05-19T15:45:36.114Z,6.70
2023-05-19T15:48:06.216Z,6.07
2023-05-19T15:50:33.394Z,6.80
2023-05-19T15:53:00.321Z,6.00
2023-05-19T15:55:27.195Z,6.10
2023-05-19T15:57:57.602Z,5.50
2023-05-19T16:00:24.490Z,5.55
2023-05-19T16:02:53.297Z,5.60
2023-05-19T16:05:20.288Z,5.50
2023-05-19T16:07:47.237Z,6.27
2023-05-19T16:10:14.206Z,5.75
2023-05-19T16:12:43.542Z,5.15
2023-05-19T16:15:14.488Z,5.57
2023-05-19T16:17:41.710Z,5.93
2023-05-19T16:20:17.411Z,5.40
2023-05-19T16:22:47.418Z,5.07
2023-05-19T16:25:20.596Z,5.27
2023-05-19T16:27:48.018Z,5.68
2023-05-19T16:30:19.308Z,4.70
2023-05-19T16:32:54.145Z,5.20
2023-05-19T16:35:27.991Z,5.18
2023-05-19T16:37:57.597Z,5.10
2023-05-19T16:40:24.787Z,4.82
2023-05-19T16:43:04.232Z,4.50
2023-05-19T16:45:32.059Z,4.78
2023-05-19T16:48:01.386Z,4.53
2023-05-19T16:50:28.427Z,4.28
2023-05-19T16:52:56.090Z,4.40
2023-05-19T16:55:34.438Z,5.13
2023-05-19T16:58:03.862Z,4.38
2023-05-19T17:00:32.359Z,4.43
2023-05-19T17:03:01.975Z,4.60
2023-05-19T17:05:31.949Z,4.22
2023-05-19T17:08:09.289Z,4.50
2023-05-19T17:10:41.807Z,4.28
2023-05-19T17:13:14.401Z,4.45
2023-05-19T17:15:44.205Z,4.80
2023-05-19T17:18:23.162Z,4.30
2023-05-19T17:20:50.668Z,4.03
2023-05-19T17:23:21.121Z,4.03
2023-05-19T17:25:48.585Z,4.93
2023-05-19T17:28:15.795Z,4.15
2023-05-19T17:30:44.251Z,4.38
2023-05-19T17:33:11.701Z,4.28
2023-05-19T17:35:39.874Z,3.40
2023-05-19T17:38:08.683Z,4.55
2023-05-19T17:40:43.122Z,3.90
2023-05-19T17:43:10.357Z,4.72
2023-05-19T17:45:44.795Z,4.15
2023-05-19T17:48:14.483Z,4.22
2023-05-19T17:50:50.588Z,4.22
2023-05-19T17:53:21.820Z,3.83
2023-05-19T17:56:05.199Z,4.15
2023-05-19T17:58:34.026Z,3.95
2023-05-19T18:01:03.464Z,4.27
2023-05-19T18:03:34.381Z,4.18
2023-05-19T18:06:01.765Z,4.07
2023-05-19T18:08:38.561Z,4.00
2023-05-19T18:11:09.691Z,3.92
2023-05-19T18:13:37.794Z,4.00
2023-05-19T18:16:05.511Z,3.58
2023-05-19T18:18:45.218Z,3.85
2023-05-19T18:21:23.976Z,4.63
2023-05-19T18:23:52.094Z,4.10
2023-05-19T18:26:22.176Z,4.20
2023-05-19T18:28:57.421Z,4.10
2023-05-19T18:31:27.477Z,3.00
2023-05-19T18:33:56.935Z,3.13
2023-05-19T18:36:23.890Z,2.78
2023-05-19T18:38:50.930Z,3.58
2023-05-19T18:41:25.871Z,2.97
2023-05-19T18:43:52.999Z,2.70
2023-05-19T18:46:20.402Z,2.97
2023-05-19T18:48:47.398Z,3.45
2023-05-19T18:51:18.725Z,2.92
2023-05-19T18:53:48.715Z,3.17
2023-05-19T18:58:49.423Z,3.08
2023-05-19T19:06:24.957Z,3.08
2023-05-19T19:08:51.901Z,3.90
2023-05-19T19:11:29.324Z,3.92
2023-05-19T19:13:59.757Z,3.00
2023-05-19T19:16:27.159Z,3.22
2023-05-19T19:18:57.822Z,2.55
2023-05-19T19:21:28.372Z,2.95
2023-05-19T19:23:57.386Z,2.63
2023-05-19T19:26:29.728Z,2.80
2023-05-19T19:29:05.687Z,3.20
2023-05-19T19:31:34.339Z,2.92
2023-05-19T19:34:05.584Z,3.13
2023-05-19T19:36:41.369Z,3.20
2023-05-19T19:39:14.696Z,2.92
2023-05-19T19:41:42.558Z,3.50
2023-05-19T19:44:10.314Z,3.45
2023-05-19T19:46:39.740Z,3.17
2023-05-19T19:49:20.307Z,2.83
2023-05-19T19:51:54.059Z,3.30
2023-05-19T19:54:29.250Z,3.10
2023-05-19T19:56:56.846Z,3.65
2023-05-19T20:06:57.541Z,3.17
2023-05-19T20:09:24.758Z,3.80
2023-05-19T20:11:52.252Z,3.35
2023-05-19T20:16:52.262Z,3.58
2023-05-19T20:19:22.289Z,3.28
2023-05-19T20:24:16.117Z,3.30
2023-05-19T20:26:50.904Z,3.75
2023-05-19T20:29:17.795Z,3.92
2023-05-19T20:31:46.951Z,3.22
2023-05-19T20:34:13.674Z,3.00
2023-05-19T20:36:40.735Z,4.05
2023-05-19T20:39:09.585Z,3.40
2023-05-19T20:41:36.678Z,3.58
2023-05-19T20:44:03.690Z,3.50
2023-05-19T20:46:30.461Z,3.22
2023-05-19T20:48:57.274Z,3.50
2023-05-19T20:51:25.371Z,3.20
2023-05-19T20:53:52.215Z,3.72
2023-05-19T20:56:19.963Z,3.03
2023-05-19T20:58:46.759Z,4.30
2023-05-19T21:01:13.546Z,4.18
2023-05-19T21:03:40.398Z,3.65
2023-05-19T21:06:07.133Z,3.55
2023-05-19T21:08:33.877Z,4.25
2023-05-19T21:11:00.633Z,4.22
2023-05-19T21:13:27.452Z,4.03
2023-05-19T21:15:56.339Z,3.80
2023-05-19T21:18:23.136Z,3.83
2023-05-19T21:20:49.958Z,4.57
2023-05-19T21:23:16.689Z,3.78
2023-05-19T21:25:45.304Z,3.45
2023-05-19T21:28:12.409Z,2.95
2023-05-19T21:30:39.177Z,3.63
2023-05-19T21:33:05.949Z,3.42
2023-05-19T21:35:32.957Z,3.72
2023-05-19T21:38:08.921Z,3.22
2023-05-19T21:40:43.103Z,3.15
2023-05-19T21:43:22.799Z,3.63
2023-05-19T21:45:50.436Z,3.83
2023-05-19T21:48:27.571Z,3.92
2023-05-19T21:50:55.406Z,3.60
2023-05-19T21:53:22.389Z,4.07
2023-05-19T21:55:49.471Z,3.60
2023-05-19T21:58:24.013Z,3.45
2023-05-19T22:00:53.265Z,3.22
2023-05-19T22:03:20.776Z,3.70
2023-05-19T22:05:55.001Z,3.40
2023-05-19T22:08:26.150Z,4.47
2023-05-19T22:10:53.044Z,3.60
2023-05-19T22:13:20.849Z,3.92
2023-05-19T22:15:47.747Z,3.92
2023-05-19T22:18:24.609Z,3.50
2023-05-19T22:20:51.467Z,3.42
2023-05-19T22:23:18.342Z,3.35
2023-05-19T22:25:45.097Z,3.90
2023-05-19T22:28:11.851Z,3.13
2023-05-19T22:30:42.300Z,3.95
2023-05-19T22:33:09.557Z,3.67
2023-05-19T22:35:36.614Z,2.95
2023-05-19T22:38:03.553Z,3.75
2023-05-19T22:40:30.442Z,3.08
2023-05-19T22:42:57.278Z,3.88
2023-05-19T22:45:24.049Z,3.67
2023-05-19T22:47:51.177Z,3.47
2023-05-19T22:50:18.134Z,3.28
2023-05-19T22:52:45.002Z,3.42
2023-05-19T22:55:11.682Z,3.13
2023-05-19T22:57:38.465Z,4.00
2023-05-19T23:00:05.830Z,3.58
2023-05-19T23:02:33.188Z,3.85
2023-05-19T23:05:00.056Z,4.13
2023-05-19T23:07:27.138Z,3.65
2023-05-19T23:09:54.028Z,3.40
2023-05-19T23:12:21.238Z,4.40
2023-05-19T23:14:48.516Z,3.67
2023-05-19T23:17:15.429Z,4.10
2023-05-19T23:19:42.786Z,3.40
2023-05-19T23:22:11.194Z,3.75
2023-05-19T23:24:49.278Z,3.35
2023-05-19T23:27:16.521Z,4.53
2023-05-19T23:29:47.512Z,4.20
2023-05-19T23:32:14.974Z,3.65
2023-05-19T23:34:41.942Z,4.25
2023-05-19T23:37:08.818Z,4.40
2023-05-19T23:39:36.123Z,4.32
2023-05-19T23:42:03.564Z,4.43
2023-05-19T23:44:30.696Z,4.18
2023-05-19T23:46:57.757Z,3.58
2023-05-19T23:49:24.605Z,3.55
2023-05-19T23:51:51.711Z,3.90
2023-05-19T23:54:18.950Z,4.28
2023-05-19T23:56:46.238Z,3.10
2023-05-19T23:59:13.083Z,4.28
